Time;durP1;ratioP1;P1;durP2;ratioP2;P2;SDS_P1;SDS_P2;PMS_P1;PMS_P2;Temp;Humidity;BMP_temperature;BMP_pressure;BME280_temperature;BME280_humidity;BME280_pressure;Samples;Min_cycle;Max_cycle;Signal;HPM_P1;HPM_P2
2023/10/13 00:01:58;;;;;;;12.60;4.20;;;;;;;11.15;69.32;100955.56;5028405;28;20044;-67
2023/10/13 00:04:27;;;;;;;7.38;3.33;;;;;;;10.88;69.56;100908.75;5027744;28;20040;-67
2023/10/13 00:06:56;;;;;;;7.77;3.37;;;;;;;11.16;69.83;100954.75;5029234;28;20033;-66
2023/10/13 00:09:25;;;;;;;9.47;3.23;;;;;;;11.11;70.19;100955.34;5028781;28;20029;-69
2023/10/13 00:11:52;;;;;;;8.00;3.53;;;;;;;11.01;69.73;100923.06;5029225;28;20808;-66
2023/10/13 00:14:20;;;;;;;8.98;3.60;;;;;;;11.09;69.55;100902.72;5028590;28;20708;-66
2023/10/13 00:17:00;;;;;;;6.30;3.80;;;;;;;11.47;69.13;100942.19;5028590;28;20037;-66
2023/10/13 00:19:28;;;;;;;16.00;4.03;;;;;;;11.07;69.46;100958.63;5028777;28;20029;-67
2023/10/13 00:21:56;;;;;;;10.40;3.90;;;;;;;11.08;69.43;100944.88;5028439;28;20044;-67
2023/10/13 00:24:23;;;;;;;9.80;3.90;;;;;;;11.17;69.64;100955.63;5030951;28;20045;-67
2023/10/13 00:26:49;;;;;;;13.85;3.70;;;;;;;11.27;70.10;100946.56;5030996;28;20037;-68
2023/10/13 00:29:17;;;;;;;16.38;3.97;;;;;;;11.32;69.93;100945.91;5030910;28;20075;-71
2023/10/13 00:31:47;;;;;;;8.35;3.47;;;;;;;11.41;69.76;100942.81;5031373;28;20026;-69
2023/10/13 00:34:25;;;;;;;12.07;3.90;;;;;;;11.42;69.21;100933.38;5031065;28;20483;-68
2023/10/13 00:39:36;;;;;;;8.90;3.30;;;;;;;10.99;70.07;100941.09;5030460;28;20087;-71
2023/10/13 00:42:08;;;;;;;9.52;4.35;;;;;;;11.02;70.37;100945.50;5031019;28;20037;-70
2023/10/13 00:44:44;;;;;;;6.80;3.50;;;;;;;10.97;70.50;100947.88;5031061;28;20043;-67
2023/10/13 00:47:16;;;;;;;10.05;3.63;;;;;;;10.60;71.15;100902.38;5018156;28;20482;-68
2023/10/13 00:49:46;;;;;;;8.82;3.40;;;;;;;10.89;71.28;100956.13;5030540;28;20026;-71
2023/10/13 00:52:15;;;;;;;5.93;3.60;;;;;;;10.72;71.59;100943.38;5030860;28;20021;-71
2023/10/13 00:54:45;;;;;;;7.57;2.88;;;;;;;10.65;72.42;100943.91;5030360;28;20439;-67
2023/10/13 00:57:26;;;;;;;10.68;3.22;;;;;;;10.55;72.99;100936.56;5031223;28;20033;-67
2023/10/13 00:59:56;;;;;;;14.07;3.72;;;;;;;10.60;72.87;100940.25;5030010;28;20060;-67
2023/10/13 01:02:39;;;;;;;9.80;4.50;;;;;;;10.61;70.12;100927.38;5030464;28;20120;-68
2023/10/13 01:05:09;;;;;;;9.05;3.53;;;;;;;10.87;68.09;100947.44;5030605;28;20079;-70
2023/10/13 01:07:37;;;;;;;;;;;;;;;10.95;67.99;100936.63;5031140;28;20037;-70
2023/10/13 01:10:13;;;;;;;8.05;3.92;;;;;;;10.92;67.44;100931.31;5030775;28;19917;-69
2023/10/13 01:12:38;;;;;;;11.70;3.20;;;;;;;10.79;66.72;100927.31;5030170;28;20021;-70
2023/10/13 01:15:11;;;;;;;9.10;3.13;;;;;;;10.66;65.65;100933.63;5030484;28;20531;-68
2023/10/13 01:17:36;;;;;;;9.05;3.15;;;;;;;10.31;64.05;100901.06;5030363;28;20021;-67
2023/10/13 01:20:04;;;;;;;6.70;3.13;;;;;;;10.41;64.91;100938.53;5029609;28;20068;-67
2023/10/13 01:22:31;;;;;;;8.65;3.67;;;;;;;10.32;66.13;100926.94;5030251;28;20086;-69
2023/10/13 01:25:05;;;;;;;5.05;2.88;;;;;;;10.33;67.70;100923.56;5030832;28;20029;-69
2023/10/13 01:27:31;;;;;;;6.47;3.15;;;;;;;10.45;67.25;100936.16;5030270;28;20029;-69
2023/10/13 01:30:05;;;;;;;8.63;3.63;;;;;;;10.46;67.68;100927.59;5030178;28;20025;-68
2023/10/13 01:32:31;;;;;;;8.98;3.22;;;;;;;10.31;68.49;100944.94;5030395;28;20052;-68
2023/10/13 01:34:58;;;;;;;5.78;3.20;;;;;;;10.25;69.77;100935.22;5030220;28;20535;-68
2023/10/13 01:37:23;;;;;;;7.88;3.25;;;;;;;10.24;70.70;100942.91;5030028;28;20138;-69
2023/10/13 01:39:49;;;;;;;11.05;3.55;;;;;;;10.30;71.02;100941.47;5029925;28;20128;-69
2023/10/13 01:42:23;;;;;;;6.88;3.45;;;;;;;10.41;70.47;100948.88;5030565;28;20032;-70
2023/10/13 01:44:48;;;;;;;7.40;3.33;;;;;;;10.47;70.04;100939.69;5029669;28;20029;-69
2023/10/13 01:47:16;;;;;;;9.02;3.53;;;;;;;10.47;67.02;100937.09;5030124;28;20569;-69
2023/10/13 01:49:49;;;;;;;9.85;4.15;;;;;;;10.57;66.60;100942.69;5030116;28;20052;-68
2023/10/13 01:52:15;;;;;;;8.00;3.00;;;;;;;10.45;64.44;100925.81;5029645;28;20039;-68
2023/10/13 01:54:44;;;;;;;13.10;4.43;;;;;;;10.40;64.01;100931.59;5030084;28;20483;-71
2023/10/13 01:57:14;;;;;;;9.80;2.97;;;;;;;10.38;62.74;100926.38;5030313;28;20030;-68
2023/10/13 01:59:43;;;;;;;8.75;3.17;;;;;;;10.38;63.74;100916.06;5029919;28;20028;-68
2023/10/13 02:02:12;;;;;;;7.35;2.92;;;;;;;10.33;64.23;100931.28;5030335;28;20034;-70
2023/10/13 02:04:42;;;;;;;7.97;3.05;;;;;;;10.17;62.94;100898.75;5029487;28;20028;-71
2023/10/13 02:07:08;;;;;;;8.18;3.03;;;;;;;10.24;62.40;100917.09;5028418;28;20091;-69
2023/10/13 02:09:36;;;;;;;7.60;3.00;;;;;;;10.27;61.93;100920.69;5029916;28;20483;-71
2023/10/13 02:12:02;;;;;;;11.02;3.15;;;;;;;10.12;61.33;100892.50;5029692;28;20030;-67
2023/10/13 02:14:28;;;;;;;7.75;2.97;;;;;;;10.27;60.03;100918.13;5029821;28;20022;-68
2023/10/13 02:17:11;;;;;;;7.93;2.88;;;;;;;10.08;60.15;100912.91;5030223;28;20464;-68
2023/10/13 02:19:39;;;;;;;6.78;2.60;;;;;;;10.00;61.39;100912.56;5017876;28;20052;-68
2023/10/13 02:22:08;;;;;;;8.07;3.50;;;;;;;9.99;61.69;100906.53;5029628;28;20091;-68
2023/10/13 02:24:34;;;;;;;7.38;3.33;;;;;;;9.97;62.05;100915.91;5029803;28;20036;-69
2023/10/13 02:27:04;;;;;;;9.10;3.10;;;;;;;10.00;62.62;100910.00;5029921;28;20475;-67
2023/10/13 02:29:30;;;;;;;7.35;2.78;;;;;;;9.91;64.39;100912.16;5033556;28;20037;-70
2023/10/13 02:31:55;;;;;;;6.20;3.15;;;;;;;9.84;65.40;100917.03;5033347;28;20550;-67
2023/10/13 02:34:23;;;;;;;10.70;3.60;;;;;;;9.79;66.24;100904.72;5033217;28;20033;-66
2023/10/13 02:36:48;;;;;;;7.35;3.22;;;;;;;9.84;66.82;100918.72;5033327;28;20034;-69
2023/10/13 02:39:36;;;;;;;9.00;2.95;;;;;;;9.63;67.41;100905.69;5033765;28;20044;-67
2023/10/13 02:42:06;;;;;;;6.93;2.92;;;;;;;9.23;69.48;100928.72;5032923;28;20172;-68
2023/10/13 02:44:36;;;;;;;5.55;3.17;;;;;;;9.04;69.21;100884.81;5032853;28;20491;-68
2023/10/13 02:47:24;;;;;;;6.97;4.20;;;;;;;9.40;68.57;100923.50;5020464;28;20029;-68
2023/10/13 02:49:49;;;;;;;10.48;4.63;;;;;;;9.44;68.37;100916.81;5050046;28;20033;-69
2023/10/13 02:52:15;;;;;;;7.75;3.10;;;;;;;9.47;67.79;100915.25;5050414;28;20091;-69
2023/10/13 02:54:47;;;;;;;7.68;3.80;;;;;;;9.55;66.60;100908.75;5050439;28;20040;-68
2023/10/13 02:57:15;;;;;;;5.63;3.05;;;;;;;9.65;65.92;100916.97;5050736;28;20052;-69
2023/10/13 02:59:48;;;;;;;4.32;2.25;;;;;;;9.65;65.58;100920.41;5050252;28;20037;-69
2023/10/13 03:02:17;;;;;;;7.35;2.75;;;;;;;9.48;65.05;100919.63;5050327;28;20596;-72
2023/10/13 03:04:49;;;;;;;;;;;;;;;9.41;64.89;100917.53;5050745;28;20033;-72
2023/10/13 03:07:23;;;;;;;4.53;2.60;;;;;;;9.38;65.15;100918.28;5033218;28;19917;-70
2023/10/13 03:09:52;;;;;;;9.75;3.55;;;;;;;9.35;65.65;100920.69;5033664;28;20124;-72
2023/10/13 03:12:18;;;;;;;9.13;3.17;;;;;;;9.45;65.63;100924.59;5049905;28;20032;-69
2023/10/13 03:14:56;;;;;;;6.18;2.85;;;;;;;9.43;66.32;100925.34;5050245;28;20041;-68
2023/10/13 03:17:33;;;;;;;8.50;2.97;;;;;;;9.36;65.80;100929.31;5049781;28;20032;-69
2023/10/13 03:19:59;;;;;;;4.95;3.08;;;;;;;9.34;66.18;100918.91;5049613;28;20108;-69
2023/10/13 03:22:31;;;;;;;6.72;2.63;;;;;;;9.09;66.79;100913.38;5049607;28;20060;-69
2023/10/13 03:25:06;;;;;;;8.45;2.88;;;;;;;9.11;67.18;100922.94;5049840;28;20497;-68
2023/10/13 03:30:20;;;;;;;5.40;3.20;;;;;;;9.21;66.92;100916.56;5032149;28;20030;-68
2023/10/13 03:33:12;;;;;;;7.10;3.00;;;;;;;8.92;67.62;100879.03;5032310;28;20555;-70
2023/10/13 03:35:40;;;;;;;6.78;3.35;;;;;;;9.08;68.67;100912.47;5049580;28;20566;-69
2023/10/13 03:41:19;;;;;;;9.05;3.03;;;;;;;9.09;71.79;100913.38;5009377;28;20070;-69
2023/10/13 03:43:45;;;;;;;9.05;3.35;;;;;;;8.99;72.21;100900.03;4996971;28;20036;-70
2023/10/13 03:46:11;;;;;;;7.28;3.53;;;;;;;9.04;72.43;100910.56;5009207;28;20045;-71
2023/10/13 03:48:56;;;;;;;7.68;3.40;;;;;;;8.83;72.99;100898.34;5009855;28;20105;-68
2023/10/13 03:51:23;;;;;;;8.32;3.08;;;;;;;8.70;73.53;100898.56;5009051;28;20058;-67
2023/10/13 03:53:55;;;;;;;6.88;3.10;;;;;;;8.67;73.55;100894.13;5009491;28;20164;-68
2023/10/13 04:08:46;;;;;;;7.05;3.40;;;;;;;8.47;75.32;100923.09;4875434;29;20080;-67
2023/10/13 04:16:02;;;;;;;10.85;3.20;;;;;;;8.44;75.32;100928.94;4875353;29;20145;-68
2023/10/13 04:21:36;;;;;;;8.63;2.95;;;;;;;8.26;76.44;100922.00;4889166;29;20084;-68
2023/10/13 04:27:18;;;;;;;6.60;3.38;;;;;;;8.08;76.94;100895.28;4893732;29;20048;-67
2023/10/13 04:29:46;;;;;;;5.65;3.13;;;;;;;8.39;76.76;100932.94;4893861;29;20060;-66
2023/10/13 04:32:15;;;;;;;8.35;3.53;;;;;;;8.48;76.32;100922.28;4893720;29;20203;-67
2023/10/13 04:34:45;;;;;;;6.88;3.63;;;;;;;8.40;76.32;100919.28;4894061;29;20076;-67
2023/10/13 04:37:29;;;;;;;6.15;3.13;;;;;;;8.41;76.26;100929.66;4950503;28;20027;-68
2023/10/13 04:40:11;;;;;;;10.02;4.00;;;;;;;8.42;76.43;100934.00;4969465;28;20070;-68
2023/10/13 04:42:49;;;;;;;4.93;3.10;;;;;;;8.43;76.57;100940.00;4969628;28;20027;-68
2023/10/13 04:45:38;;;;;;;6.18;3.55;;;;;;;8.36;76.74;100937.91;4953247;28;20050;-67
2023/10/13 04:50:47;;;;;;;6.78;3.30;;;;;;;8.18;77.00;100902.69;4953725;28;20036;-70
2023/10/13 04:53:29;;;;;;;8.60;3.67;;;;;;;8.56;77.04;100962.16;4949546;29;20078;-69
2023/10/13 04:59:17;;;;;;;21.30;4.43;;;;;;;8.40;78.20;100943.31;4992820;28;20404;-67
2023/10/13 05:04:21;;;;;;;5.47;3.28;;;;;;;8.50;79.00;100957.59;5030958;28;20033;-69
2023/10/13 06:31:08;;;;;;;9.75;4.72;;;;;;;12.54;73.94;101001.59;5028953;28;20052;-67
2023/10/13 06:33:34;;;;;;;9.05;5.45;;;;;;;12.13;73.08;100905.13;5028944;28;20164;-67
2023/10/13 06:36:02;;;;;;;29.38;6.57;;;;;;;12.65;73.96;101002.00;5033403;28;20036;-67
2023/10/13 06:38:35;;;;;;;14.05;5.85;;;;;;;12.62;74.54;101000.19;5031440;28;20466;-67
2023/10/13 06:41:05;;;;;;;28.33;7.45;;;;;;;12.52;74.79;100981.66;5031331;28;20076;-67
2023/10/13 06:43:32;;;;;;;10.85;5.85;;;;;;;12.66;75.08;100987.34;5029729;28;20036;-68
2023/10/13 06:46:03;;;;;;;10.55;5.80;;;;;;;12.54;75.14;100948.94;5030817;28;20065;-67
2023/10/13 06:48:34;;;;;;;9.20;6.00;;;;;;;13.00;74.09;100979.06;5030969;28;20104;-67
2023/10/13 06:51:03;;;;;;;11.80;5.97;;;;;;;13.25;73.58;100979.94;5027112;28;20095;-69
2023/10/13 06:53:30;;;;;;;9.23;5.13;;;;;;;13.54;72.40;100980.03;5040895;28;20017;-67
2023/10/13 06:55:58;;;;;;;13.10;5.57;;;;;;;13.83;71.37;100982.69;5032771;28;20043;-68
2023/10/13 06:58:24;;;;;;;9.68;5.70;;;;;;;13.99;70.21;100990.13;5033119;28;20033;-66
2023/10/13 07:00:54;;;;;;;13.18;5.90;;;;;;;14.10;70.41;100980.09;5032662;28;20029;-69
2023/10/13 07:03:21;;;;;;;10.90;5.78;;;;;;;14.15;70.56;100985.44;5043941;28;20037;-68
2023/10/13 07:05:49;;;;;;;10.93;6.18;;;;;;;14.28;70.29;100973.69;5031406;28;20399;-68
2023/10/13 07:08:19;;;;;;;15.75;5.95;;;;;;;14.42;69.71;100959.41;5033015;28;20108;-67
2023/10/13 07:10:58;;;;;;;10.60;6.28;;;;;;;14.46;70.03;100966.44;5030678;28;20384;-67
2023/10/13 07:13:28;;;;;;;16.25;5.95;;;;;;;14.82;69.65;100983.06;5030129;28;20092;-68
2023/10/13 07:15:59;;;;;;;8.48;6.20;;;;;;;14.98;68.27;100953.19;5032402;28;20030;-68
2023/10/13 07:18:25;;;;;;;11.25;6.03;;;;;;;15.22;67.68;100972.88;5032115;28;20034;-67
2023/10/13 07:20:52;;;;;;;10.98;5.72;;;;;;;15.36;66.96;100971.50;5032635;28;20036;-67
2023/10/13 07:23:17;;;;;;;11.75;6.47;;;;;;;15.61;66.42;100975.56;5033049;28;20681;-66
2023/10/13 07:25:53;;;;;;;14.27;6.38;;;;;;;15.80;65.86;100978.63;5032846;28;20018;-66
2023/10/13 07:28:18;;;;;;;11.10;5.75;;;;;;;15.95;65.01;100979.03;5032652;28;20599;-68
2023/10/13 07:33:21;;;;;;;11.52;6.53;;;;;;;16.24;63.84;100970.97;5032809;28;20398;-66
2023/10/13 07:35:51;;;;;;;10.68;5.70;;;;;;;16.31;63.35;100978.09;5048145;28;20102;-69
2023/10/13 07:38:21;;;;;;;11.98;6.03;;;;;;;16.44;63.53;100975.75;5032719;28;20395;-68
2023/10/13 07:40:52;;;;;;;12.05;5.63;;;;;;;16.46;63.33;100974.03;5029629;28;20083;-69
2023/10/13 07:43:23;;;;;;;9.77;6.07;;;;;;;16.72;62.34;100968.47;5030101;28;20033;-70
2023/10/13 07:45:58;;;;;;;10.07;5.97;;;;;;;16.78;62.06;100955.56;5030136;28;20495;-65
2023/10/13 07:48:25;;;;;;;11.15;6.55;;;;;;;16.94;61.64;100959.38;5029869;28;20075;-68
2023/10/13 07:51:03;;;;;;;13.48;7.20;;;;;;;17.01;62.78;100963.88;5029293;28;20148;-67
2023/10/13 07:53:34;;;;;;;9.82;5.70;;;;;;;16.89;62.24;100935.78;5030000;28;20507;-67
2023/10/13 07:56:08;;;;;;;16.60;7.28;;;;;;;17.17;61.07;100966.72;5029812;28;20510;-67
2023/10/13 07:58:47;;;;;;;17.30;6.82;;;;;;;17.04;60.29;100950.00;5029864;28;20411;-68
2023/10/13 08:01:17;;;;;;;19.10;6.57;;;;;;;17.35;60.60;100974.03;5029382;28;20046;-68
2023/10/13 08:03:46;;;;;;;11.40;5.93;;;;;;;17.35;60.01;100974.03;5029719;28;20312;-66
2023/10/13 08:06:19;;;;;;;14.10;6.60;;;;;;;17.09;59.86;100938.78;5029497;28;20049;-66
2023/10/13 08:08:49;;;;;;;8.63;5.35;;;;;;;17.39;59.25;100971.47;5028556;28;20030;-67
2023/10/13 08:13:53;;;;;;;12.30;5.32;;;;;;;17.59;59.45;100956.13;5012203;28;20516;-67
2023/10/13 08:16:30;;;;;;;10.20;5.32;;;;;;;17.75;58.81;100957.25;5018204;28;20087;-66
2023/10/13 08:18:56;;;;;;;12.68;4.78;;;;;;;17.93;57.79;100951.44;5031220;28;20021;-65
2023/10/13 08:21:24;;;;;;;9.07;5.13;;;;;;;18.20;59.87;100944.84;5031144;28;20467;-66
2023/10/13 08:32:13;;;;;;;12.25;4.20;;;;;;;18.67;54.17;100943.69;5030963;28;20048;-67
2023/10/13 08:34:38;;;;;;;7.03;4.28;;;;;;;18.82;57.36;100936.88;5031603;28;20033;-66
2023/10/13 08:37:22;;;;;;;7.75;3.40;;;;;;;18.96;53.66;100932.69;5046993;28;20052;-67
2023/10/13 08:48:08;;;;;;;12.43;4.50;;;;;;;19.49;54.29;100931.41;5013434;28;20495;-70
2023/10/13 09:04:27;;;;;;;8.57;4.25;;;;;;;20.29;53.27;100920.53;5028989;28;20041;-67
2023/10/13 09:12:19;;;;;;;11.38;3.92;;;;;;;20.65;52.93;100908.41;5030223;28;20041;-68
2023/10/13 09:14:57;;;;;;;7.85;3.22;;;;;;;20.77;49.72;100889.25;5029012;28;20025;-67
2023/10/13 09:20:24;;;;;;;8.25;3.65;;;;;;;21.06;50.02;100872.63;5028712;28;20029;-70
2023/10/13 09:25:34;;;;;;;5.13;2.97;;;;;;;21.30;45.38;100889.25;5030079;28;20529;-70
2023/10/13 09:28:00;;;;;;;6.65;3.22;;;;;;;21.46;44.99;100890.97;5029678;28;20025;-70
2023/10/13 09:30:28;;;;;;;9.18;2.83;;;;;;;21.57;44.72;100884.88;5029530;28;20461;-65
2023/10/13 09:33:04;;;;;;;9.52;3.38;;;;;;;21.68;44.39;100876.97;5029662;28;20029;-70
2023/10/13 09:35:36;;;;;;;9.27;2.80;;;;;;;21.87;43.63;100888.28;5029403;28;20061;-70
2023/10/13 09:38:03;;;;;;;5.60;3.10;;;;;;;21.95;43.07;100862.88;5030340;28;20506;-67
2023/10/13 09:43:07;;;;;;;7.80;3.17;;;;;;;22.37;44.03;100865.28;5030256;28;20034;-69
2023/10/13 09:45:39;;;;;;;7.32;3.70;;;;;;;22.45;44.55;100880.22;5030165;28;20025;-68
2023/10/13 09:48:26;;;;;;;10.95;3.35;;;;;;;22.47;45.29;100848.63;5029632;28;20033;-67
2023/10/13 09:50:59;;;;;;;5.60;3.30;;;;;;;22.75;45.30;100883.53;5029917;28;20037;-70
2023/10/13 09:53:53;;;;;;;10.85;5.38;;;;;;;22.83;45.89;100866.78;5026587;28;20049;-68
2023/10/13 09:56:28;;;;;;;11.18;5.13;;;;;;;22.90;42.38;100842.16;5026826;28;20542;-71
2023/10/13 09:59:10;;;;;;;4.65;2.92;;;;;;;23.16;40.77;100862.16;5027457;28;20557;-67
2023/10/13 10:01:51;;;;;;;4.25;2.50;;;;;;;23.24;40.93;100866.47;5027198;28;20541;-69
2023/10/13 10:04:18;;;;;;;8.05;2.63;;;;;;;23.26;40.28;100856.81;5027058;28;20038;-66
2023/10/13 10:07:01;;;;;;;5.93;3.08;;;;;;;23.33;39.94;100849.72;5027291;28;20025;-67
2023/10/13 10:09:34;;;;;;;6.45;3.17;;;;;;;23.45;40.54;100859.25;5027231;28;20042;-68
2023/10/13 10:12:21;;;;;;;8.07;3.38;;;;;;;23.55;40.42;100854.75;5026581;28;20128;-67
2023/10/13 10:18:25;;;;;;;5.10;2.90;;;;;;;23.67;39.47;100822.13;5027814;28;20203;-68
2023/10/13 10:20:55;;;;;;;7.68;2.70;;;;;;;23.81;38.90;100820.19;5009310;28;20094;-68
2023/10/13 10:23:43;;;;;;;8.80;3.38;;;;;;;24.06;38.47;100830.44;5009636;28;20048;-68
2023/10/13 10:26:25;;;;;;;8.10;3.03;;;;;;;24.28;38.67;100828.41;5004518;28;20041;-68
2023/10/13 10:28:50;;;;;;;4.95;3.13;;;;;;;24.37;38.48;100822.09;5006957;28;20050;-67
2023/10/13 10:31:19;;;;;;;5.18;2.92;;;;;;;24.48;37.54;100822.81;5006620;28;20121;-68
2023/10/13 10:33:52;;;;;;;6.35;3.05;;;;;;;24.41;38.88;100817.66;5025481;28;20037;-67
2023/10/13 10:36:29;;;;;;;5.57;3.17;;;;;;;24.31;37.73;100814.28;5027557;28;20044;-67
2023/10/13 10:38:59;;;;;;;12.60;3.97;;;;;;;24.17;39.13;100794.25;5024820;28;20057;-69
2023/10/13 10:41:32;;;;;;;5.63;3.35;;;;;;;24.19;40.20;100812.72;5025057;28;20062;-68
2023/10/13 10:44:02;;;;;;;10.38;3.10;;;;;;;24.21;41.35;100806.50;5025971;28;20042;-68
2023/10/13 10:46:37;;;;;;;14.48;3.88;;;;;;;24.20;39.79;100778.38;5021718;28;20033;-68
2023/10/13 10:49:08;;;;;;;8.30;2.85;;;;;;;24.51;40.58;100795.50;5035617;28;20021;-68
2023/10/13 10:52:00;;;;;;;12.80;3.33;;;;;;;24.74;40.53;100807.53;5028272;28;20188;-72
2023/10/13 10:54:30;;;;;;;5.35;2.65;;;;;;;24.88;37.79;100792.28;5013409;28;20033;-69
2023/10/13 10:57:10;;;;;;;7.10;3.00;;;;;;;25.04;36.72;100798.19;5029970;28;20055;-68
2023/10/13 10:59:40;;;;;;;6.78;3.40;;;;;;;25.26;37.32;100789.84;5029945;28;20091;-68
2023/10/13 11:02:07;;;;;;;;;;;;;;;25.33;36.27;100792.38;5030308;28;20610;-66
2023/10/13 11:04:40;;;;;;;6.60;3.25;;;;;;;25.36;36.86;100775.59;5025281;28;19988;-68
2023/10/13 11:07:06;;;;;;;7.90;3.03;;;;;;;25.51;36.07;100771.78;5021388;28;20438;-66
2023/10/13 11:09:36;;;;;;;4.97;3.35;;;;;;;25.58;35.55;100781.31;5029794;28;20462;-69
2023/10/13 11:14:50;;;;;;;5.68;3.00;;;;;;;25.79;35.96;100763.28;5030267;28;20037;-68
2023/10/13 11:17:42;;;;;;;5.75;2.60;;;;;;;25.93;34.94;100770.91;5030291;28;20045;-70
2023/10/13 11:20:16;;;;;;;8.00;2.80;;;;;;;25.95;34.46;100769.97;5030286;28;20044;-67
2023/10/13 11:22:47;;;;;;;4.95;2.97;;;;;;;25.90;34.33;100769.19;5029115;28;20033;-68
2023/10/13 11:25:22;;;;;;;6.72;2.85;;;;;;;26.00;34.42;100764.56;5031427;28;20068;-67
2023/10/13 11:28:27;;;;;;;4.35;2.63;;;;;;;25.94;34.03;100736.47;5065521;28;20130;-65
2023/10/13 11:30:58;;;;;;;5.57;2.90;;;;;;;26.08;33.77;100751.19;5048890;28;20586;-66
2023/10/13 11:33:25;;;;;;;5.22;2.85;;;;;;;26.27;33.62;100765.75;5060572;28;20045;-69
2023/10/13 11:38:27;;;;;;;6.40;2.92;;;;;;;26.30;33.42;100759.50;5069207;28;20049;-66
2023/10/13 11:46:50;;;;;;;3.95;2.65;;;;;;;26.27;33.22;100756.91;5044455;28;20558;-65
2023/10/13 11:51:49;;;;;;;7.40;3.08;;;;;;;26.06;34.60;100753.88;5054954;28;20126;-69
2023/10/13 11:54:15;;;;;;;7.97;3.38;;;;;;;26.06;33.40;100742.44;5049948;28;20048;-68
2023/10/13 11:56:42;;;;;;;6.80;3.10;;;;;;;26.22;33.62;100743.81;5056665;28;20091;-72
2023/10/13 11:59:15;;;;;;;7.47;3.20;;;;;;;26.16;34.54;100728.09;5041003;28;20107;-66
2023/10/13 12:04:58;;;;;;;9.18;3.35;;;;;;;26.48;33.89;100739.63;4989599;28;20108;-65
2023/10/13 12:07:39;;;;;;;22.48;3.22;;;;;;;26.42;33.87;100740.69;4989742;28;20037;-66
2023/10/13 12:10:06;;;;;;;10.23;3.22;;;;;;;26.43;34.47;100744.19;4989405;28;20416;-66
2023/10/13 12:12:40;;;;;;;6.28;2.70;;;;;;;26.41;33.57;100746.88;4988026;28;20471;-64
2023/10/13 12:15:09;;;;;;;9.07;3.25;;;;;;;26.34;33.84;100736.47;4989442;28;20575;-65
2023/10/13 12:17:35;;;;;;;8.13;2.22;;;;;;;26.28;33.47;100746.31;5004997;28;20192;-64
2023/10/13 12:20:04;;;;;;;6.30;2.90;;;;;;;26.25;33.79;100741.09;4989951;28;20508;-66
2023/10/13 12:22:38;;;;;;;;;;;;;;;26.20;34.27;100734.19;4989734;28;20038;-65
2023/10/13 12:25:25;;;;;;;6.18;3.08;;;;;;;26.14;33.15;100732.53;4989723;28;20327;-66
2023/10/13 12:27:56;;;;;;;9.23;3.42;;;;;;;26.15;34.26;100740.44;4989134;28;20042;-67
2023/10/13 12:30:35;;;;;;;6.88;3.00;;;;;;;26.11;33.28;100741.41;4989472;28;20035;-64
2023/10/13 12:33:08;;;;;;;7.57;3.07;;;;;;;26.00;32.99;100728.38;4989581;28;20045;-65
2023/10/13 12:35:35;;;;;;;5.78;3.47;;;;;;;25.96;33.26;100729.38;4989336;28;20285;-64
2023/10/13 12:38:36;;;;;;;11.68;3.63;;;;;;;25.87;35.42;100729.59;4989599;28;20038;-64
2023/10/13 12:52:15;;;;;;;9.60;3.50;;;;;;;25.63;34.07;100710.72;5028939;28;20041;-66
2023/10/13 12:57:23;;;;;;;13.00;3.85;;;;;;;25.85;34.13;100731.41;5028444;28;20120;-65
2023/10/13 12:59:49;;;;;;;9.00;3.50;;;;;;;25.67;35.16;100698.28;5028067;28;20036;-68
2023/10/13 13:02:17;;;;;;;4.65;2.80;;;;;;;25.81;36.30;100730.59;5028155;28;20057;-65
2023/10/13 13:04:45;;;;;;;9.57;3.83;;;;;;;25.87;34.44;100726.94;5028083;28;20441;-65
2023/10/13 13:07:14;;;;;;;13.80;4.18;;;;;;;25.75;33.54;100714.00;5028028;28;20071;-65
2023/10/13 13:09:43;;;;;;;13.80;3.88;;;;;;;25.83;33.68;100720.88;5027740;28;20242;-65
2023/10/13 13:12:12;;;;;;;11.52;4.22;;;;;;;25.75;33.82;100714.00;5027802;28;20053;-64
2023/10/13 13:14:40;;;;;;;;;;;;;;;25.81;33.79;100719.16;5028338;28;20516;-64
2023/10/13 13:17:05;;;;;;;13.43;4.72;;;;;;;25.77;34.00;100718.34;5027941;28;19913;-65
2023/10/13 13:19:41;;;;;;;10.32;3.97;;;;;;;25.71;34.04;100704.38;5028021;28;20022;-67
2023/10/13 13:22:11;;;;;;;16.90;4.40;;;;;;;25.77;33.91;100720.09;5029901;28;20415;-65
2023/10/13 13:24:47;;;;;;;12.18;4.25;;;;;;;25.66;33.74;100705.38;5030344;28;20425;-69
2023/10/13 13:27:14;;;;;;;14.77;4.80;;;;;;;25.74;34.25;100721.03;5030360;28;20025;-63
2023/10/13 13:29:49;;;;;;;11.02;4.13;;;;;;;25.76;34.00;100713.97;5030130;28;20491;-64
2023/10/13 13:32:18;;;;;;;11.13;4.55;;;;;;;25.75;34.04;100711.34;5030386;28;20507;-64
2023/10/13 13:34:53;;;;;;;17.77;4.82;;;;;;;25.77;36.40;100709.53;5027759;28;20042;-64
2023/10/13 13:37:19;;;;;;;15.70;5.22;;;;;;;25.73;36.29;100715.81;5029949;28;20025;-64
2023/10/13 13:39:45;;;;;;;11.73;4.13;;;;;;;25.64;36.32;100701.88;5029993;28;20029;-67
2023/10/13 13:42:17;;;;;;;27.45;6.82;;;;;;;25.73;36.10;100713.16;5028873;28;20036;-65
2023/10/13 13:44:48;;;;;;;13.40;4.40;;;;;;;25.58;35.41;100678.22;5030268;28;20037;-64
2023/10/13 13:47:14;;;;;;;11.65;3.97;;;;;;;25.63;35.62;100686.94;5030120;28;20046;-64
2023/10/13 13:49:46;;;;;;;11.35;4.00;;;;;;;25.80;36.22;100712.97;5028603;28;20022;-65
2023/10/13 13:52:17;;;;;;;12.98;3.80;;;;;;;25.79;37.14;100715.66;5028980;28;20389;-67
2023/10/13 13:54:43;;;;;;;11.10;4.03;;;;;;;25.61;37.65;100691.38;5030152;28;20021;-65
2023/10/13 13:57:08;;;;;;;11.20;3.72;;;;;;;25.72;36.17;100714.06;5030061;28;20084;-64
2023/10/13 13:59:34;;;;;;;15.60;3.97;;;;;;;25.71;35.97;100718.50;5029721;28;20105;-64
2023/10/13 14:02:06;;;;;;;15.82;3.80;;;;;;;25.68;36.33;100715.91;5029716;28;20408;-67
2023/10/13 14:04:31;;;;;;;13.48;4.25;;;;;;;25.65;37.44;100708.91;5030053;28;20022;-64
2023/10/13 14:06:57;;;;;;;12.82;3.78;;;;;;;25.60;36.99;100718.72;5029009;28;20038;-64
2023/10/13 14:09:40;;;;;;;15.25;3.92;;;;;;;25.59;37.45;100719.59;5029961;28;20017;-66
2023/10/13 14:14:55;;;;;;;15.27;5.03;;;;;;;25.59;36.90;100709.03;5030442;28;20431;-68
2023/10/13 14:17:29;;;;;;;10.32;3.55;;;;;;;25.64;36.83;100716.88;5029746;28;20087;-64
2023/10/13 14:19:57;;;;;;;11.20;4.30;;;;;;;25.61;37.34;100709.00;5029989;28;20091;-66
2023/10/13 14:22:27;;;;;;;9.35;3.15;;;;;;;25.43;37.05;100686.50;5030001;28;20037;-65
2023/10/13 14:24:55;;;;;;;13.85;4.00;;;;;;;25.51;37.65;100708.34;5033949;28;20096;-64
2023/10/13 14:27:23;;;;;;;11.60;4.27;;;;;;;25.52;37.21;100707.41;5033936;28;20064;-68
2023/10/13 14:29:52;;;;;;;14.75;3.90;;;;;;;25.54;36.50;100696.84;5033846;28;20496;-64
2023/10/13 14:32:19;;;;;;;9.10;3.17;;;;;;;25.55;37.06;100702.09;5033489;28;20057;-64
2023/10/13 14:34:54;;;;;;;8.90;3.40;;;;;;;25.52;37.55;100704.78;5033308;28;20533;-64
2023/10/13 14:37:26;;;;;;;10.95;3.67;;;;;;;25.49;37.43;100707.50;5020721;28;20034;-66
2023/10/13 14:39:56;;;;;;;13.48;3.65;;;;;;;25.42;37.27;100695.31;5032205;28;20037;-64
2023/10/13 14:42:26;;;;;;;15.10;3.42;;;;;;;25.34;37.01;100698.94;5033384;28;20029;-63
2023/10/13 14:44:57;;;;;;;13.45;3.58;;;;;;;25.37;37.92;100702.47;5033161;28;20025;-64
2023/10/13 14:47:27;;;;;;;13.82;3.97;;;;;;;25.30;39.29;100704.34;5033059;28;20460;-64
2023/10/13 14:49:55;;;;;;;;;;;;;;;25.26;39.07;100700.00;5033729;28;20033;-64
2023/10/13 14:52:22;;;;;;;17.63;3.92;;;;;;;25.26;38.00;100711.47;5033462;28;19979;-65
2023/10/13 14:54:50;;;;;;;12.18;4.35;;;;;;;25.26;38.58;100706.19;5033035;28;20031;-66
2023/10/13 14:57:16;;;;;;;13.43;3.72;;;;;;;25.09;38.22;100676.59;5033308;28;20044;-64
2023/10/13 14:59:41;;;;;;;12.00;3.47;;;;;;;25.18;39.33;100711.63;5033057;28;20021;-64
2023/10/13 15:02:07;;;;;;;15.95;3.70;;;;;;;25.18;37.90;100711.63;5033265;28;20463;-64
2023/10/13 15:04:33;;;;;;;10.55;4.20;;;;;;;25.20;37.65;100708.94;5033063;28;20025;-64
2023/10/13 15:07:03;;;;;;;13.80;3.38;;;;;;;25.20;36.98;100703.66;5033166;28;20109;-63
2023/10/13 15:09:29;;;;;;;7.90;3.13;;;;;;;25.11;37.36;100698.53;5032899;28;20021;-64
2023/10/13 15:11:54;;;;;;;8.43;2.90;;;;;;;24.89;36.90;100667.28;5032770;28;20057;-64
2023/10/13 15:14:20;;;;;;;23.92;3.75;;;;;;;25.07;37.93;100704.78;5026580;28;20064;-66